Terminal Aerodrome Forecast
Issued by NWS

Home | Current Version | Previous Version | Text Only | Print | Product List | Glossary On
Versions: 1 2 3 4 5 6 7 8 9 10 11 12 13 14 15 16 17 18 19 20 21 22 23 24 25 26 27 28 29 30 31 32 33 34 35 36 37 38 39
000
FTUS44 KHGX 220527
TAFSGR
TAF
KSGR 220527Z 2206/2306 19006KT P6SM SKC
     FM221000 00000KT 6SM BR SCT015
     FM221500 22004KT P6SM SCT025 SCT250
     FM221900 16005KT P6SM SCT040 SCT250
     FM230400 19004KT P6SM SKC=

USA.gov is the U.S. government's official web portal to all federal, state and local government web resources and services.